Time;durP1;ratioP1;P1;durP2;ratioP2;P2;SDS_P1;SDS_P2;PMS_P1;PMS_P2;Temp;Humidity;BMP_temperature;BMP_pressure;BME280_temperature;BME280_humidity;BME280_pressure;Samples;Min_cycle;Max_cycle;Signal;HPM_P1;HPM_P2
2022/08/11 00:00:11;;;;;;;4.90;3.00;;;;;;;;;;110907;1248;34134;-32
2022/08/11 00:03:06;;;;;;;6.40;3.40;;;;;;;;;;110946;1243;34132;-32
2022/08/11 00:05:46;;;;;;;5.50;3.10;;;;;;;;;;110950;1248;34028;-32
2022/08/11 00:08:24;;;;;;;6.60;3.20;;;;;;;;;;110946;1241;33781;-32
2022/08/11 00:10:58;;;;;;;5.90;3.00;;;;;;;;;;110954;1249;35059;-32
2022/08/11 00:13:32;;;;;;;;;;;;;;;;;;110950;1244;34139;-32
2022/08/11 00:16:12;;;;;;;5.90;3.20;;;;;;;;;;110934;1249;34162;-32
2022/08/11 00:18:45;;;;;;;4.60;2.90;;;;;;;;;;110905;1249;34120;-32
2022/08/11 00:21:17;;;;;;;5.20;2.90;;;;;;;;;;110938;1244;34156;-32
2022/08/11 00:23:55;;;;;;;5.90;3.60;;;;;;;;;;110938;1249;33993;-32
2022/08/11 00:26:26;;;;;;;6.00;3.20;;;;;;;;;;110925;1243;34095;-32
2022/08/11 00:29:08;;;;;;;5.40;3.00;;;;;;;;;;110929;1249;34021;-32
2022/08/11 00:31:43;;;;;;;6.80;3.60;;;;;;;;;;110916;1241;33932;-32
2022/08/11 00:34:17;;;;;;;5.30;3.10;;;;;;;;;;110930;1241;33679;-32
2022/08/11 00:36:51;;;;;;;5.80;3.40;;;;;;;;;;110948;1244;33304;-32
2022/08/11 00:39:23;;;;;;;6.10;3.30;;;;;;;;;;110979;1249;34012;-32
2022/08/11 00:42:11;;;;;;;4.90;3.10;;;;;;;;;;110938;1249;34417;-32
2022/08/11 00:44:56;;;;;;;5.30;3.30;;;;;;;;;;110936;1249;34076;-32
2022/08/11 00:47:42;;;;;;;4.70;3.00;;;;;;;;;;110940;1249;34436;-32
2022/08/11 00:50:18;;;;;;;5.70;2.90;;;;;;;;;;110975;1249;34894;-32
2022/08/11 00:53:08;;;;;;;5.70;3.30;;;;;;;;;;110894;1241;33743;-32
2022/08/11 00:56:09;;;;;;;7.00;3.20;;;;;;;;;;110922;1249;34142;-32
2022/08/11 00:59:07;;;;;;;5.70;3.20;;;;;;;;;;110930;1241;35105;-32
2022/08/11 01:01:57;;;;;;;5.50;3.40;;;;;;;;;;110946;1242;33310;-32
2022/08/11 01:04:59;;;;;;;4.70;2.90;;;;;;;;;;110932;1244;35749;-32
2022/08/11 01:08:10;;;;;;;4.50;3.00;;;;;;;;;;110940;1243;34269;-32
2022/08/11 01:10:54;;;;;;;4.90;3.30;;;;;;;;;;110778;1241;35245;-33
2022/08/11 01:13:45;;;;;;;5.60;3.10;;;;;;;;;;110936;1241;33708;-32
2022/08/11 01:16:37;;;;;;;4.30;2.80;;;;;;;;;;110946;1250;31494;-32
2022/08/11 01:19:31;;;;;;;5.70;3.30;;;;;;;;;;110934;1244;35626;-33
2022/08/11 01:22:31;;;;;;;5.30;3.30;;;;;;;;;;110901;1241;33335;-32
2022/08/11 01:25:36;;;;;;;5.60;3.20;;;;;;;;;;110882;1249;34349;-32
2022/08/11 01:28:32;;;;;;;6.00;3.20;;;;;;;;;;110945;1249;34152;-32
2022/08/11 01:31:43;;;;;;;4.90;3.20;;;;;;;;;;110534;1244;506621;-32
2022/08/11 01:34:55;;;;;;;5.10;3.10;;;;;;;;;;110935;1249;33701;-32
2022/08/11 01:38:03;;;;;;;6.20;3.20;;;;;;;;;;110925;1241;33689;-32
2022/08/11 01:41:05;;;;;;;6.30;3.20;;;;;;;;;;110804;1244;33785;-32
2022/08/11 01:47:49;;;;;;;4.70;3.00;;;;;;;;;;110728;1247;34057;-32
2022/08/11 01:50:14;;;;;;;4.20;2.60;;;;;;;;;;110934;1241;33964;-32
2022/08/11 01:53:04;;;;;;;4.60;2.90;;;;;;;;;;110960;1242;33990;-32
2022/08/11 01:55:39;;;;;;;4.40;2.40;;;;;;;;;;110916;1244;33912;-32
2022/08/11 01:58:16;;;;;;;4.50;2.80;;;;;;;;;;110919;1243;34080;-32
2022/08/11 02:00:53;;;;;;;5.20;2.70;;;;;;;;;;110949;1243;34431;-32
2022/08/11 02:03:29;;;;;;;5.00;2.80;;;;;;;;;;110919;1243;33795;-32
2022/08/11 02:06:53;;;;;;;5.20;3.20;;;;;;;;;;110932;1241;33711;-32
2022/08/11 02:09:13;;;;;;;6.40;3.80;;;;;;;;;;110913;1241;33718;-33
2022/08/11 02:11:45;;;;;;;5.40;3.00;;;;;;;;;;110959;1249;35479;-32
2022/08/11 02:14:24;;;;;;;5.10;3.10;;;;;;;;;;110943;1241;34134;-32
2022/08/11 02:17:19;;;;;;;4.90;2.90;;;;;;;;;;110951;1241;33502;-32
2022/08/11 02:25:50;;;;;;;4.50;3.00;;;;;;;;;;110930;1244;33605;-32
2022/08/11 02:28:27;;;;;;;5.20;2.80;;;;;;;;;;110911;1244;34603;-32
2022/08/11 02:34:04;;;;;;;5.00;2.70;;;;;;;;;;110954;1241;34284;-32
2022/08/11 02:36:42;;;;;;;5.60;2.80;;;;;;;;;;110939;1244;33030;-32
2022/08/11 02:39:14;;;;;;;4.70;2.90;;;;;;;;;;110913;1242;33534;-32
2022/08/11 02:44:51;;;;;;;5.20;3.00;;;;;;;;;;110928;1243;34016;-32
2022/08/11 02:47:37;;;;;;;4.50;2.60;;;;;;;;;;110940;1244;35595;-32
2022/08/11 02:50:17;;;;;;;4.40;2.70;;;;;;;;;;110950;1241;34130;-32
2022/08/11 02:52:59;;;;;;;5.00;3.10;;;;;;;;;;110936;1249;35604;-32
2022/08/11 02:55:35;;;;;;;5.60;3.20;;;;;;;;;;110913;1244;34159;-32
2022/08/11 02:58:18;;;;;;;4.50;2.70;;;;;;;;;;110900;1249;34189;-32
2022/08/11 03:00:55;;;;;;;4.20;2.40;;;;;;;;;;110957;1242;34108;-32
2022/08/11 03:03:32;;;;;;;5.50;2.90;;;;;;;;;;110927;1242;33842;-32
2022/08/11 03:06:14;;;;;;;4.60;2.50;;;;;;;;;;110961;1249;34389;-32
2022/08/11 03:08:56;;;;;;;5.70;2.60;;;;;;;;;;110955;1241;32613;-32
2022/08/11 03:17:41;;;;;;;4.10;2.60;;;;;;;;;;110743;1251;33281;-32
2022/08/11 03:20:30;;;;;;;5.20;2.80;;;;;;;;;;110687;1251;35928;-32
2022/08/11 03:23:06;;;;;;;4.80;2.60;;;;;;;;;;110723;1251;34032;-32
2022/08/11 03:25:46;;;;;;;5.10;3.10;;;;;;;;;;110701;1243;33810;-32
2022/08/11 03:28:27;;;;;;;5.00;2.70;;;;;;;;;;110711;1243;33953;-32
2022/08/11 03:31:10;;;;;;;4.60;2.70;;;;;;;;;;110754;1244;33068;-32
2022/08/11 03:34:01;;;;;;;4.90;2.60;;;;;;;;;;110751;1251;33542;-32
2022/08/11 03:37:47;;;;;;;5.50;2.70;;;;;;;;;;110751;1243;34016;-32
2022/08/11 03:40:14;;;;;;;5.60;2.40;;;;;;;;;;110732;1248;33663;-32
2022/08/11 03:42:50;;;;;;;4.30;2.60;;;;;;;;;;110739;1242;33695;-32
2022/08/11 03:45:26;;;;;;;4.80;2.80;;;;;;;;;;110730;1251;34240;-33
2022/08/11 03:48:20;;;;;;;5.20;3.00;;;;;;;;;;110722;1243;35606;-33
2022/08/11 03:51:01;;;;;;;4.50;2.30;;;;;;;;;;110725;1243;35339;-33
2022/08/11 03:53:55;;;;;;;4.60;2.80;;;;;;;;;;110723;1251;34007;-33
2022/08/11 03:57:09;;;;;;;4.50;2.70;;;;;;;;;;110752;1243;34291;-33
2022/08/11 04:00:08;;;;;;;5.00;2.50;;;;;;;;;;110731;1251;33324;-33
2022/08/11 04:03:18;;;;;;;5.00;2.60;;;;;;;;;;110726;1244;34031;-33
2022/08/11 04:06:26;;;;;;;5.80;2.50;;;;;;;;;;110707;1245;33780;-33
2022/08/11 04:09:39;;;;;;;5.50;2.70;;;;;;;;;;110585;1243;33303;-33
2022/08/11 04:12:22;;;;;;;4.90;2.70;;;;;;;;;;110733;1249;33679;-33
2022/08/11 04:19:00;;;;;;;5.50;2.90;;;;;;;;;;110714;1251;35929;-33
2022/08/11 04:22:03;;;;;;;5.60;2.80;;;;;;;;;;110743;1244;33892;-40
2022/08/11 04:24:59;;;;;;;7.30;3.00;;;;;;;;;;110751;1244;33659;-33
2022/08/11 04:27:46;;;;;;;7.30;3.00;;;;;;;;;;110738;1243;33381;-34
2022/08/11 04:30:21;;;;;;;6.90;3.20;;;;;;;;;;110746;1243;33815;-33
2022/08/11 04:33:14;;;;;;;9.50;3.70;;;;;;;;;;110720;1243;33964;-33
2022/08/11 04:35:48;;;;;;;;;;;;;;;;;;110747;1242;34160;-33
2022/08/11 04:38:58;;;;;;;8.80;3.50;;;;;;;;;;110759;1245;34079;-33
2022/08/11 04:44:57;;;;;;;10.50;3.80;;;;;;;;;;110456;1251;35419;-31
2022/08/11 05:03:31;;;;;;;9.60;4.20;;;;;;;;;;110722;1251;34302;-32
2022/08/11 05:06:30;;;;;;;12.20;4.50;;;;;;;;;;110764;1251;33913;-32
2022/08/11 05:09:16;;;;;;;16.10;4.30;;;;;;;;;;110733;1242;35482;-32
2022/08/11 05:12:17;;;;;;;12.70;4.70;;;;;;;;;;110777;1244;34032;-32
2022/08/11 05:35:07;;;;;;;10.00;4.60;;;;;;;;;;110718;1243;33284;-33
2022/08/11 05:57:29;;;;;;;9.60;5.30;;;;;;;;;;110731;1244;34050;-32
2022/08/11 06:00:09;;;;;;;11.10;5.40;;;;;;;;;;110724;1243;34026;-33
2022/08/11 06:02:44;;;;;;;12.30;5.10;;;;;;;;;;110758;1250;33921;-33
2022/08/11 06:05:16;;;;;;;11.00;6.10;;;;;;;;;;110784;1251;33828;-33
2022/08/11 06:07:47;;;;;;;9.50;5.50;;;;;;;;;;110754;1246;34068;-33
2022/08/11 06:10:29;;;;;;;11.20;5.70;;;;;;;;;;110758;1250;34042;-33
2022/08/11 06:13:00;;;;;;;9.20;5.30;;;;;;;;;;110728;1245;33694;-33
2022/08/11 06:15:33;;;;;;;11.00;5.40;;;;;;;;;;110770;1245;35648;-33
2022/08/11 06:18:04;;;;;;;10.20;5.60;;;;;;;;;;110927;1248;34000;-33
2022/08/11 06:20:48;;;;;;;10.50;4.90;;;;;;;;;;110926;1249;34530;-33
2022/08/11 06:23:21;;;;;;;9.80;4.90;;;;;;;;;;110910;1249;33492;-33
2022/08/11 06:25:53;;;;;;;10.80;5.00;;;;;;;;;;110917;1249;34050;-33
2022/08/11 06:28:31;;;;;;;10.30;5.10;;;;;;;;;;110953;1241;33912;-33
2022/08/11 06:31:02;;;;;;;9.40;4.50;;;;;;;;;;110956;1244;34198;-33
2022/08/11 06:33:42;;;;;;;10.30;5.20;;;;;;;;;;110968;1242;33692;-33
2022/08/11 06:36:16;;;;;;;9.20;4.80;;;;;;;;;;110957;1249;35823;-33
2022/08/11 06:38:59;;;;;;;9.80;4.80;;;;;;;;;;110917;1244;33840;-33
2022/08/11 06:41:35;;;;;;;6.40;4.10;;;;;;;;;;110924;1243;34035;-33
2022/08/11 06:44:19;;;;;;;8.70;4.50;;;;;;;;;;110952;1243;35609;-33
2022/08/11 06:46:54;;;;;;;8.50;4.10;;;;;;;;;;110958;1244;33324;-33
2022/08/11 06:52:29;;;;;;;8.40;3.60;;;;;;;;;;110949;1249;33547;-33
2022/08/11 06:55:05;;;;;;;7.90;3.90;;;;;;;;;;110942;1241;33316;-33
2022/08/11 07:00:28;;;;;;;8.00;4.10;;;;;;;;;;110947;1244;33707;-33
2022/08/11 07:03:07;;;;;;;6.90;3.30;;;;;;;;;;110936;1248;34020;-33
2022/08/11 07:05:48;;;;;;;8.20;3.70;;;;;;;;;;110917;1241;33919;-33
2022/08/11 07:17:24;;;;;;;7.70;3.00;;;;;;;;;;110944;1249;34844;-33
2022/08/11 07:31:26;;;;;;;5.70;2.80;;;;;;;;;;110939;1241;33997;-33
2022/08/11 07:34:05;;;;;;;6.60;2.70;;;;;;;;;;110923;1250;35713;-33
2022/08/11 07:36:38;;;;;;;6.70;2.30;;;;;;;;;;110907;1244;34121;-33
2022/08/11 07:39:14;;;;;;;7.70;2.90;;;;;;;;;;110965;1249;34806;-33
2022/08/11 07:41:46;;;;;;;5.90;2.20;;;;;;;;;;110953;1247;33704;-33
2022/08/11 07:44:18;;;;;;;6.10;2.30;;;;;;;;;;110892;1242;33720;-33
2022/08/11 07:52:31;;;;;;;5.70;2.60;;;;;;;;;;110802;1250;33343;-33
2022/08/11 07:55:04;;;;;;;5.20;2.40;;;;;;;;;;110820;1244;33708;-33
2022/08/11 08:20:03;;;;;;;8.40;3.10;;;;;;;;;;110797;1243;35689;-33
2022/08/11 08:22:35;;;;;;;5.70;2.40;;;;;;;;;;110836;1250;35755;-33
2022/08/11 08:25:07;;;;;;;8.80;3.00;;;;;;;;;;110825;1250;33797;-33
2022/08/11 08:27:39;;;;;;;7.80;2.40;;;;;;;;;;110829;1243;33524;-33
2022/08/11 08:33:04;;;;;;;7.40;2.80;;;;;;;;;;110819;1244;34418;-33
2022/08/11 08:35:37;;;;;;;7.10;2.80;;;;;;;;;;110807;1244;33721;-33
2022/08/11 08:38:11;;;;;;;5.80;2.40;;;;;;;;;;110819;1250;35739;-33
2022/08/11 08:40:45;;;;;;;6.70;2.70;;;;;;;;;;110848;1245;34153;-33
2022/08/11 08:43:16;;;;;;;;;;;;;;;;;;110835;1242;34255;-33
2022/08/11 08:45:47;;;;;;;6.60;2.70;;;;;;;;;;110800;1244;33833;-34
2022/08/11 08:48:19;;;;;;;6.40;2.60;;;;;;;;;;110789;1247;34072;-33
2022/08/11 08:53:46;;;;;;;10.50;2.60;;;;;;;;;;110827;1244;33847;-34
2022/08/11 08:56:17;;;;;;;6.70;2.80;;;;;;;;;;110819;1250;35626;-33
2022/08/11 08:58:49;;;;;;;5.30;2.40;;;;;;;;;;110877;1244;33413;-34
2022/08/11 09:01:21;;;;;;;6.60;2.30;;;;;;;;;;110840;1250;34161;-33
2022/08/11 09:03:52;;;;;;;7.10;2.40;;;;;;;;;;110849;1250;34657;-33
2022/08/11 09:06:22;;;;;;;7.30;2.80;;;;;;;;;;110837;1245;33342;-33
2022/08/11 09:08:54;;;;;;;8.50;2.50;;;;;;;;;;110828;1244;34025;-33
2022/08/11 09:14:13;;;;;;;8.30;2.30;;;;;;;;;;110898;1241;33745;-33
2022/08/11 09:16:44;;;;;;;9.60;2.60;;;;;;;;;;110947;1248;34006;-33
2022/08/11 09:19:18;;;;;;;7.70;2.50;;;;;;;;;;110931;1241;33714;-33
2022/08/11 09:26:58;;;;;;;7.40;2.70;;;;;;;;;;110963;1241;33714;-33
2022/08/11 09:27:29;;;;;;;6.20;2.60;;;;;;;;;;110945;1246;34034;-31
2022/08/11 09:30:00;;;;;;;6.30;2.60;;;;;;;;;;110735;1241;421005;-33
2022/08/11 09:32:31;;;;;;;6.90;2.40;;;;;;;;;;111066;1241;33268;-32
2022/08/11 09:35:04;;;;;;;7.60;2.30;;;;;;;;;;111073;1240;33707;-32
2022/08/11 09:40:34;;;;;;;8.40;2.50;;;;;;;;;;110509;1245;35709;-32
2022/08/11 09:45:59;;;;;;;6.30;2.50;;;;;;;;;;110839;1250;35692;-33
2022/08/11 09:48:32;;;;;;;8.50;2.90;;;;;;;;;;110777;1245;35449;-32
2022/08/11 09:51:03;;;;;;;7.00;2.30;;;;;;;;;;110962;1244;33497;-31
2022/08/11 09:53:35;;;;;;;7.80;2.40;;;;;;;;;;110882;1244;33845;-33
2022/08/11 09:58:58;;;;;;;5.70;2.30;;;;;;;;;;110907;1250;33335;-33
2022/08/11 10:01:33;;;;;;;5.50;2.20;;;;;;;;;;110942;1248;33944;-33
2022/08/11 10:04:08;;;;;;;7.30;2.20;;;;;;;;;;110816;1243;33819;-32
2022/08/11 10:09:29;;;;;;;8.50;2.40;;;;;;;;;;110855;1250;33925;-35
2022/08/11 10:12:01;;;;;;;7.00;2.20;;;;;;;;;;110863;1245;33679;-33
2022/08/11 10:17:22;;;;;;;7.80;2.00;;;;;;;;;;110860;1248;34871;-33
2022/08/11 10:19:56;;;;;;;7.40;2.50;;;;;;;;;;110954;1248;35589;-33
2022/08/11 10:28:07;;;;;;;6.20;1.90;;;;;;;;;;110934;1247;34076;-33
2022/08/11 10:36:19;;;;;;;6.70;1.90;;;;;;;;;;110898;1248;33794;-30
2022/08/11 10:38:51;;;;;;;4.40;1.60;;;;;;;;;;110819;1245;33891;-31
2022/08/11 10:44:11;;;;;;;5.20;1.80;;;;;;;;;;110907;1247;33510;-31
2022/08/11 10:49:30;;;;;;;6.90;1.90;;;;;;;;;;110856;1250;35699;-34
2022/08/11 11:00:28;;;;;;;4.80;1.50;;;;;;;;;;110897;1242;35320;-32
2022/08/11 11:02:59;;;;;;;6.40;1.70;;;;;;;;;;110881;1248;33724;-32
2022/08/11 11:05:31;;;;;;;5.80;1.60;;;;;;;;;;110818;1241;34163;-32
2022/08/11 11:08:51;;;;;;;4.50;1.70;;;;;;;;;;110892;1247;33490;-31
2022/08/11 11:11:02;;;;;;;4.30;1.60;;;;;;;;;;110887;1242;33742;-33
2022/08/11 11:19:09;;;;;;;3.90;1.40;;;;;;;;;;110900;1248;35267;-33
2022/08/11 11:21:41;;;;;;;3.40;1.70;;;;;;;;;;110871;1251;33455;-34
2022/08/11 11:24:17;;;;;;;4.30;1.70;;;;;;;;;;111014;1247;33998;-32
2022/08/11 11:26:56;;;;;;;4.50;1.90;;;;;;;;;;110356;1247;33662;-32
2022/08/11 11:29:39;;;;;;;4.80;1.70;;;;;;;;;;110372;1246;35555;-32
2022/08/11 11:32:33;;;;;;;7.00;2.10;;;;;;;;;;110356;1248;34983;-33
2022/08/11 11:35:33;;;;;;;6.60;2.00;;;;;;;;;;110361;1253;34347;-32
2022/08/11 11:38:08;;;;;;;5.90;1.90;;;;;;;;;;110306;1246;33822;-33
2022/08/11 11:40:40;;;;;;;77.70;31.60;;;;;;;;;;110437;1248;35623;-32
2022/08/11 11:43:11;;;;;;;48.00;20.10;;;;;;;;;;110328;1248;35039;-33
2022/08/11 11:45:42;;;;;;;48.50;19.00;;;;;;;;;;110390;1250;33856;-32
2022/08/11 11:48:12;;;;;;;39.90;17.20;;;;;;;;;;110379;1253;35698;-35
2022/08/11 11:50:43;;;;;;;39.90;16.90;;;;;;;;;;110454;1252;33847;-33
2022/08/11 11:53:15;;;;;;;37.60;15.30;;;;;;;;;;110445;1248;33905;-32
2022/08/11 11:55:45;;;;;;;37.10;15.40;;;;;;;;;;110425;1254;33807;-34
2022/08/11 12:01:22;;;;;;;30.60;12.90;;;;;;;;;;110414;1248;34017;-34
2022/08/11 12:03:55;;;;;;;26.10;12.70;;;;;;;;;;110429;1253;34079;-33
2022/08/11 12:06:26;;;;;;;25.40;10.80;;;;;;;;;;110460;1246;33391;-32
2022/08/11 12:08:58;;;;;;;23.10;10.50;;;;;;;;;;110434;1248;33927;-32
2022/08/11 12:14:21;;;;;;;19.00;9.00;;;;;;;;;;110353;1248;33022;-33
2022/08/11 12:16:50;;;;;;;;;;;;;;;;;;110428;1247;33743;-33
2022/08/11 12:19:27;;;;;;;17.30;7.70;;;;;;;;;;110293;1248;33429;-33
2022/08/11 12:27:44;;;;;;;13.60;6.60;;;;;;;;;;110254;1251;35699;-33
2022/08/11 12:30:18;;;;;;;14.20;5.70;;;;;;;;;;110459;1248;33957;-33
2022/08/11 12:32:49;;;;;;;12.30;5.40;;;;;;;;;;110523;1246;33788;-33
2022/08/11 12:35:20;;;;;;;13.60;5.30;;;;;;;;;;110404;1256;34008;-33
2022/08/11 12:37:54;;;;;;;10.30;4.80;;;;;;;;;;110411;1254;34028;-32
2022/08/11 12:46:09;;;;;;;10.70;4.30;;;;;;;;;;110445;1254;34076;-32
2022/08/11 12:54:28;;;;;;;7.70;3.50;;;;;;;;;;110467;1247;34096;-31
2022/08/11 13:05:32;;;;;;;7.20;2.70;;;;;;;;;;110310;1254;33904;-33
2022/08/11 13:08:05;;;;;;;7.40;3.20;;;;;;;;;;110405;1247;34094;-33
2022/08/11 13:13:26;;;;;;;6.40;2.30;;;;;;;;;;110291;1248;33706;-32
2022/08/11 13:15:56;;;;;;;6.60;2.60;;;;;;;;;;110255;1254;33391;-32
2022/08/11 13:18:27;;;;;;;5.10;2.20;;;;;;;;;;110445;1254;33810;-33
2022/08/11 13:20:58;;;;;;;5.40;2.40;;;;;;;;;;110432;1248;35671;-34
2022/08/11 13:23:29;;;;;;;5.00;1.80;;;;;;;;;;110463;1248;33917;-34
2022/08/11 13:26:01;;;;;;;5.10;1.90;;;;;;;;;;110438;1253;33739;-33
2022/08/11 13:28:35;;;;;;;7.00;2.20;;;;;;;;;;110429;1254;35660;-32
2022/08/11 13:31:13;;;;;;;6.10;2.10;;;;;;;;;;110449;1254;34570;-32
2022/08/11 13:33:48;;;;;;;4.50;1.80;;;;;;;;;;110410;1254;34130;-32
2022/08/11 13:36:21;;;;;;;5.90;2.10;;;;;;;;;;110433;1253;34673;-33
2022/08/11 13:38:53;;;;;;;5.50;1.70;;;;;;;;;;110452;1247;33282;-33
2022/08/11 13:41:40;;;;;;;3.70;1.50;;;;;;;;;;110368;1248;34039;-33
2022/08/11 13:44:12;;;;;;;3.90;1.60;;;;;;;;;;110376;1254;33478;-33
2022/08/11 13:46:43;;;;;;;6.00;1.90;;;;;;;;;;110389;1254;34124;-33
2022/08/11 13:49:15;;;;;;;3.60;1.60;;;;;;;;;;110293;1250;33736;-33
2022/08/11 13:51:46;;;;;;;5.00;1.70;;;;;;;;;;110460;1253;33243;-33
2022/08/11 13:54:21;;;;;;;5.50;1.60;;;;;;;;;;110478;1247;34194;-33
2022/08/11 13:56:53;;;;;;;4.60;1.60;;;;;;;;;;110414;1254;34030;-33
2022/08/11 13:59:25;;;;;;;4.10;1.30;;;;;;;;;;110448;1256;34003;-33
2022/08/11 14:01:59;;;;;;;3.70;1.40;;;;;;;;;;110439;1254;35735;-33
2022/08/11 14:04:33;;;;;;;3.20;1.20;;;;;;;;;;110427;1248;35348;-33
2022/08/11 14:07:07;;;;;;;2.70;1.40;;;;;;;;;;110432;1254;35927;-33
2022/08/11 14:09:40;;;;;;;4.80;1.80;;;;;;;;;;110400;1254;35657;-33
2022/08/11 14:15:06;;;;;;;2.80;1.50;;;;;;;;;;110454;1247;34911;-33
2022/08/11 14:17:38;;;;;;;2.80;1.40;;;;;;;;;;110433;1248;33361;-33
2022/08/11 14:20:11;;;;;;;5.40;1.50;;;;;;;;;;110415;1251;34161;-33
2022/08/11 14:22:43;;;;;;;3.20;1.40;;;;;;;;;;110447;1253;33370;-33
2022/08/11 14:25:15;;;;;;;4.60;1.60;;;;;;;;;;110367;1256;35572;-33
2022/08/11 14:27:48;;;;;;;3.60;1.30;;;;;;;;;;110292;1251;34151;-33
2022/08/11 14:33:06;;;;;;;3.00;1.50;;;;;;;;;;110278;1250;33717;-33
2022/08/11 14:35:37;;;;;;;2.60;1.30;;;;;;;;;;110435;1257;35577;-33
2022/08/11 14:38:09;;;;;;;2.70;1.30;;;;;;;;;;110421;1247;34133;-33
2022/08/11 14:49:14;;;;;;;2.50;1.30;;;;;;;;;;110268;1256;35723;-32
2022/08/11 14:51:46;;;;;;;2.90;1.20;;;;;;;;;;110430;1256;35688;-33
2022/08/11 14:57:05;;;;;;;3.00;1.40;;;;;;;;;;110413;1250;33694;-33
2022/08/11 14:59:36;;;;;;;3.50;1.20;;;;;;;;;;110417;1247;33668;-33
2022/08/11 15:04:51;;;;;;;3.50;1.40;;;;;;;;;;110170;1257;34371;-32
2022/08/11 15:07:28;;;;;;;2.20;1.00;;;;;;;;;;110414;1248;33771;-31
2022/08/11 15:10:01;;;;;;;3.10;1.20;;;;;;;;;;110418;1253;33513;-32
2022/08/11 15:12:30;;;;;;;;;;;;;;;;;;110442;1256;35600;-31
2022/08/11 15:17:51;;;;;;;2.80;1.10;;;;;;;;;;110191;1251;33122;-31
2022/08/11 15:26:01;;;;;;;3.00;1.20;;;;;;;;;;110042;1249;35590;-32
2022/08/11 15:37:26;;;;;;;3.20;1.30;;;;;;;;;;110303;1248;33671;-33
2022/08/11 15:45:49;;;;;;;3.10;1.20;;;;;;;;;;110200;1255;35144;-33
2022/08/11 15:48:27;;;;;;;3.70;1.60;;;;;;;;;;110295;1248;33290;-33
2022/08/11 15:51:03;;;;;;;2.60;1.20;;;;;;;;;;110222;1248;33693;-32
2022/08/11 15:53:40;;;;;;;2.30;1.10;;;;;;;;;;110234;1251;33719;-32
2022/08/11 15:56:12;;;;;;;4.40;1.30;;;;;;;;;;110256;1256;34068;-31
2022/08/11 16:04:25;;;;;;;3.40;1.40;;;;;;;;;;110260;1255;34410;-32
2022/08/11 16:06:58;;;;;;;3.40;1.10;;;;;;;;;;110319;1248;33831;-31
2022/08/11 16:09:35;;;;;;;2.90;1.20;;;;;;;;;;110287;1256;35657;-31
2022/08/11 16:12:09;;;;;;;2.70;1.10;;;;;;;;;;110194;1249;33374;-32
2022/08/11 16:17:31;;;;;;;3.50;1.40;;;;;;;;;;110217;1251;33895;-31
2022/08/11 16:20:02;;;;;;;3.10;1.30;;;;;;;;;;110226;1248;35713;-33
2022/08/11 16:22:38;;;;;;;2.60;1.10;;;;;;;;;;110279;1256;34031;-32
2022/08/11 16:25:12;;;;;;;2.50;1.20;;;;;;;;;;110233;1255;33810;-33
2022/08/11 16:27:46;;;;;;;2.60;1.10;;;;;;;;;;110281;1248;33603;-32
2022/08/11 16:30:17;;;;;;;4.50;1.20;;;;;;;;;;110198;1257;35672;-33
2022/08/11 16:32:51;;;;;;;3.10;1.20;;;;;;;;;;110240;1257;35651;-33
2022/08/11 16:41:04;;;;;;;2.40;1.20;;;;;;;;;;110218;1248;33594;-33
2022/08/11 16:49:20;;;;;;;3.10;1.10;;;;;;;;;;110150;1256;34547;-33
2022/08/11 16:51:52;;;;;;;2.70;1.20;;;;;;;;;;110231;1255;33727;-33
2022/08/11 16:54:22;;;;;;;3.10;1.20;;;;;;;;;;110183;1256;33783;-33
2022/08/11 16:56:54;;;;;;;2.60;1.10;;;;;;;;;;110276;1248;33362;-33
2022/08/11 16:59:27;;;;;;;3.00;1.20;;;;;;;;;;110200;1255;33819;-33
2022/08/11 17:02:02;;;;;;;2.60;1.30;;;;;;;;;;110274;1251;33745;-33
2022/08/11 17:13:16;;;;;;;3.00;1.20;;;;;;;;;;110150;1256;34109;-34
2022/08/11 17:16:08;;;;;;;2.90;1.20;;;;;;;;;;110308;1255;33388;-35
2022/08/11 17:18:48;;;;;;;2.50;1.30;;;;;;;;;;110431;1246;34135;-34
2022/08/11 17:21:22;;;;;;;3.50;1.20;;;;;;;;;;110293;1254;33965;-33
2022/08/11 17:23:55;;;;;;;2.40;1.30;;;;;;;;;;110295;1246;33813;-33
2022/08/11 17:26:26;;;;;;;;;;;;;;;;;;110417;1253;33974;-33
2022/08/11 17:29:00;;;;;;;3.80;1.30;;;;;;;;;;110367;1248;33994;-33
2022/08/11 17:37:08;;;;;;;4.50;1.80;;;;;;;;;;110424;1248;34211;-34
2022/08/11 17:39:39;;;;;;;5.50;1.70;;;;;;;;;;110428;1246;33020;-34
2022/08/11 17:50:37;;;;;;;4.10;2.00;;;;;;;;;;110283;1249;34175;-33
2022/08/11 18:01:38;;;;;;;4.50;1.90;;;;;;;;;;110334;1251;34083;-34
2022/08/11 18:04:10;;;;;;;4.80;2.20;;;;;;;;;;110427;1246;34159;-34
2022/08/11 18:06:41;;;;;;;5.70;2.10;;;;;;;;;;110390;1247;33712;-34
